Sakura — JG5711 — position and weather

sailwx.info

Track history (hours):
 
Tides and Currents Weather Stations Pressure Air Temp Water Temp Dewpoint Dewpoint Depression Visibility Wind Speed Wind Dir Waves Ship Positions

Sakura

Last reported at 2017-Jul-23 07:13 UTC. Time now 2017-Jul-23 12:34 UTC.
Position N 35°27' E 139°39'.

Length 32 m; draft 3.6 m.

Type: Tug. MMSI: 431101178.

Date/timePositionNaut miles runAvg speedWind from/ knotsBaromVisibWave heightAir tempDewpointWater temp
2017-Jul-23 07:13N 35°27' E 139°39'0 0.0
2017-Jul-23 07:00N 35°27' E 139°39'0 0.0
2017-Jul-23 06:30N 35°27' E 139°39'0 0.0
2017-Jul-23 06:00N 35°27' E 139°39'0 0.0
2017-Jul-23 05:30N 35°27' E 139°39'0 0.0
2017-Jul-23 05:00N 35°27' E 139°39'0 0.0
2017-Jul-23 04:31N 35°27' E 139°39'0 0.0
2017-Jul-23 00:48N 35°27' E 139°39'0 0.0
2017-Jul-23 00:30N 35°27' E 139°39'0 0.0
2017-Jul-23 00:00N 35°27' E 139°39'0 0.0
2017-Jul-22 23:30N 35°27' E 139°39'1 1.5
2017-Jul-22 23:01N 35°27' E 139°39'510.1
2017-Jul-22 22:31N 35°29' E 139°45'0 0.2
2017-Jul-22 22:00N 35°29' E 139°45'1 1.7
2017-Jul-22 21:30N 35°29' E 139°45'1 1.1
2017-Jul-22 21:00N 35°28' E 139°45'0 0.0
2017-Jul-22 20:30N 35°28' E 139°45'0 0.0
2017-Jul-22 20:00N 35°28' E 139°45'0 0.0
2017-Jul-22 19:30N 35°28' E 139°45'0 0.0
2017-Jul-22 19:00N 35°28' E 139°45'0 0.0
2017-Jul-22 18:30N 35°28' E 139°45'0 0.0
2017-Jul-22 18:00N 35°28' E 139°45'0 0.0
2017-Jul-22 17:30N 35°28' E 139°45'0 0.0
2017-Jul-22 17:00N 35°28' E 139°45'0 0.0
2017-Jul-22 16:30N 35°28' E 139°45'0 0.0
2017-Jul-22 16:00N 35°28' E 139°45'0 0.0
2017-Jul-22 15:30N 35°28' E 139°45'0 0.0
2017-Jul-22 15:00N 35°28' E 139°45'0 0.0
2017-Jul-22 14:00N 35°28' E 139°45'1 1.9
2017-Jul-22 13:30N 35°29' E 139°45'1 1.5
2017-Jul-22 13:00N 35°29' E 139°45'4 8.2
2017-Jul-22 12:30N 35°27' E 139°40'1 2.3
2017-Jul-22 12:00N 35°27' E 139°39'0 0.0
2017-Jul-22 11:30N 35°27' E 139°39'0 0.0
2017-Jul-22 11:00N 35°27' E 139°39'0 0.0
2017-Jul-22 10:30N 35°27' E 139°39'0 0.0
2017-Jul-22 10:00N 35°27' E 139°39'0 0.0
2017-Jul-22 09:30N 35°27' E 139°39'0 0.0
2017-Jul-22 09:00N 35°27' E 139°39'2 3.3
2017-Jul-22 08:30N 35°26' E 139°40'1 2.0
2017-Jul-22 08:00N 35°27' E 139°39'0 0.0
2017-Jul-22 07:30N 35°27' E 139°39'0 0.0
2017-Jul-22 07:00N 35°27' E 139°39'0 0.0
2017-Jul-22 06:30N 35°27' E 139°39'0 0.0
2017-Jul-22 06:00N 35°27' E 139°39'0 0.0
2017-Jul-22 05:30N 35°27' E 139°39'0 0.0
2017-Jul-22 05:00N 35°27' E 139°39'3 5.8
2017-Jul-22 04:30N 35°29' E 139°42'4 7.7
2017-Jul-22 04:00N 35°31' E 139°46'1 1.9
2017-Jul-22 03:30N 35°30' E 139°45'3 6.6
2017-Jul-22 03:00N 35°29' E 139°42'2 3.5
2017-Jul-22 02:30N 35°28' E 139°44'3 6.9
2017-Jul-22 02:00N 35°27' E 139°40'0 0.3
2017-Jul-22 01:30N 35°27' E 139°39'0 0.0
2017-Jul-22 01:00N 35°27' E 139°39'0 0.0
2017-Jul-22 00:30N 35°27' E 139°39'0 0.2
2017-Jul-22 00:01N 35°27' E 139°39'2 3.4
2017-Jul-21 23:30N 35°28' E 139°41'1 2.6
2017-Jul-21 23:01N 35°27' E 139°43'1 2.6
2017-Jul-21 22:30N 35°26' E 139°44'4 7.9
2017-Jul-21 22:01N 35°27' E 139°40'1 1.6
2017-Jul-21 21:30N 35°27' E 139°39'0 0.0
2017-Jul-21 21:00N 35°27' E 139°39'0 0.0
2017-Jul-21 09:43N 35°27' E 139°39'0 0.5
2017-Jul-21 09:30N 35°27' E 139°39'2 3.9
2017-Jul-21 09:00N 35°27' E 139°41'0 0.2
2017-Jul-21 08:30N 35°27' E 139°41'2 3.8
2017-Jul-21 08:00N 35°27' E 139°39'0 0.0
2017-Jul-21 07:30N 35°27' E 139°39'1 1.7
2017-Jul-21 07:00N 35°27' E 139°40'0 0.0
2017-Jul-21 06:30N 35°27' E 139°40'1 2.5
2017-Jul-21 06:00N 35°26' E 139°41'0 0.1
2017-Jul-21 05:30N 35°26' E 139°41'2 4.1
2017-Jul-21 05:01N 35°27' E 139°39'0 0.0
2017-Jul-21 04:31N 35°27' E 139°39'0 0.0
2017-Jul-21 04:01N 35°27' E 139°39'0 0.0
2017-Jul-21 03:31N 35°27' E 139°39'2 4.0
2017-Jul-21 03:00N 35°28' E 139°41'0 0.9
2017-Jul-21 02:30N 35°28' E 139°41'1 1.2
2017-Jul-21 02:00N 35°28' E 139°42'1 1.4
2017-Jul-21 01:31N 35°27' E 139°42'0 0.0
2017-Jul-21 01:01N 35°27' E 139°42'0 0.0
2017-Jul-21 00:31N 35°27' E 139°42'0 0.0
2017-Jul-21 00:00N 35°27' E 139°42'0 0.0
2017-Jul-20 23:30N 35°27' E 139°42'0 0.0
2017-Jul-20 23:00N 35°27' E 139°42'0 0.1
2017-Jul-20 22:30N 35°27' E 139°42'2 3.5
2017-Jul-20 22:00N 35°26' E 139°42'1 1.1
2017-Jul-20 21:30N 35°26' E 139°41'3 5.5
2017-Jul-20 21:01N 35°27' E 139°39'0 0.4
2017-Jul-20 20:30N 35°27' E 139°39'0 0.0
2017-Jul-20 08:51N 35°27' E 139°39'0 0.0
2017-Jul-20 08:31N 35°27' E 139°39'0 0.0
2017-Jul-20 08:01N 35°27' E 139°39'0 0.0
2017-Jul-20 07:31N 35°27' E 139°39'0 0.0
2017-Jul-20 07:00N 35°27' E 139°39'0 0.0
2017-Jul-20 06:31N 35°27' E 139°39'0 0.0
2017-Jul-20 06:01N 35°27' E 139°39'0 0.0
2017-Jul-20 05:31N 35°27' E 139°39'0 0.0
2017-Jul-20 05:01N 35°27' E 139°39'0 0.0
2017-Jul-20 04:31N 35°27' E 139°39'0 0.0
2017-Jul-20 04:01N 35°27' E 139°39'0 0.0
2017-Jul-20 03:31N 35°27' E 139°39'0 0.0
2017-Jul-20 03:01N 35°27' E 139°39'0 0.0
2017-Jul-20 02:31N 35°27' E 139°39'0 0.0
2017-Jul-20 02:01N 35°27' E 139°39'0 0.0
2017-Jul-20 01:31N 35°27' E 139°39'0 0.0
2017-Jul-20 01:00N 35°27' E 139°39'0 0.0
2017-Jul-20 00:31N 35°27' E 139°39'1 1.8
2017-Jul-20 00:01N 35°28' E 139°40'1 2.2
2017-Jul-19 23:31N 35°29' E 139°39'2 3.4
2017-Jul-19 23:01N 35°28' E 139°41'0 0.6
2017-Jul-19 22:31N 35°28' E 139°41'1 2.7
2017-Jul-19 22:01N 35°28' E 139°43'2 3.0
2017-Jul-19 21:31N 35°27' E 139°41'2 3.8
2017-Jul-19 21:01N 35°27' E 139°39'0 0.0
2017-Jul-19 20:30N 35°27' E 139°39'0 0.0
2017-Jul-19 20:01N 35°27' E 139°39'0 0.0
2017-Jul-19 19:30N 35°27' E 139°39'0 0.0
2017-Jul-19 19:01N 35°27' E 139°39'0 0.0
2017-Jul-19 18:31N 35°27' E 139°39'0 0.0
2017-Jul-19 18:01N 35°27' E 139°39'0 0.0
2017-Jul-19 07:19N 35°27' E 139°39'0 0.0
2017-Jul-19 07:00N 35°27' E 139°39'0 0.0
2017-Jul-19 06:30N 35°27' E 139°39'0 0.0
2017-Jul-19 06:01N 35°27' E 139°39'0 0.0
2017-Jul-19 05:31N 35°27' E 139°39'4 8.0
2017-Jul-19 05:00N 35°24' E 139°42'2 3.1
2017-Jul-19 04:31N 35°24' E 139°40'0 0.1
2017-Jul-19 04:00N 35°24' E 139°40'0 0.4
2017-Jul-19 03:31N 35°24' E 139°40'2 3.1
2017-Jul-19 03:00N 35°24' E 139°42'4 7.0
2017-Jul-19 02:30N 35°28' E 139°41'0 0.0
2017-Jul-19 02:00N 35°28' E 139°41'0 0.0
2017-Jul-19 01:30N 35°28' E 139°41'0 0.0
2017-Jul-19 01:00N 35°28' E 139°41'0 0.0
2017-Jul-19 00:30N 35°28' E 139°41'0 0.0
2017-Jul-19 00:01N 35°28' E 139°41'0 0.0
2017-Jul-18 23:30N 35°28' E 139°41'0 0.0
2017-Jul-18 23:01N 35°28' E 139°41'1 2.2
2017-Jul-18 22:30N 35°28' E 139°42'1 2.7
2017-Jul-18 22:01N 35°27' E 139°43'4 7.6
2017-Jul-18 21:30N 35°27' E 139°39'0 0.0
2017-Jul-18 21:00N 35°27' E 139°39'0 0.0
2017-Jul-18 20:30N 35°27' E 139°39'0 0.0
2017-Jul-18 07:16N 35°27' E 139°39'0 0.0
2017-Jul-18 07:00N 35°27' E 139°39'0 0.0
2017-Jul-18 06:30N 35°27' E 139°39'1 1.4
2017-Jul-18 06:01N 35°27' E 139°39'0 0.1
2017-Jul-18 05:30N 35°27' E 139°39'3 6.5
2017-Jul-18 05:00N 35°28' E 139°43'1 2.1
2017-Jul-18 04:30N 35°28' E 139°44'0 0.1
2017-Jul-18 04:00N 35°28' E 139°44'0 0.3
2017-Jul-18 03:30N 35°28' E 139°44'1 2.4
2017-Jul-18 03:00N 35°27' E 139°44'1 1.2
2017-Jul-18 02:30N 35°26' E 139°45'2 3.6
2017-Jul-18 02:00N 35°28' E 139°44'0 0.0
2017-Jul-18 01:30N 35°28' E 139°44'1 1.2
2017-Jul-18 01:00N 35°28' E 139°44'2 4.6
2017-Jul-18 00:30N 35°30' E 139°45'1 1.7
2017-Jul-18 00:00N 35°30' E 139°44'5 9.7
2017-Jul-17 23:30N 35°27' E 139°40'1 0.0
2017-Jul-17 07:08N 35°27' E 139°39'0 0.0
2017-Jul-17 07:00N 35°27' E 139°39'0 0.0
2017-Jul-17 06:30N 35°27' E 139°39'0 0.0
2017-Jul-17 06:00N 35°27' E 139°39'0 0.0
2017-Jul-17 05:30N 35°27' E 139°39'0 0.0
2017-Jul-17 05:00N 35°27' E 139°39'0 0.0
2017-Jul-17 04:30N 35°27' E 139°39'0 0.0
2017-Jul-17 04:00N 35°27' E 139°39'0 0.7
2017-Jul-17 03:31N 35°28' E 139°39'611.7
2017-Jul-17 03:00N 35°31' E 139°45'0 0.5
2017-Jul-17 02:30N 35°30' E 139°45'3 6.5
2017-Jul-17 02:00N 35°28' E 139°42'3 6.7
2017-Jul-17 01:30N 35°29' E 139°46'0 0.5
2017-Jul-17 01:00N 35°29' E 139°46'4 8.0
2017-Jul-17 00:30N 35°27' E 139°41'2 4.4
2017-Jul-17 00:00N 35°27' E 139°39'0 0.0
2017-Jul-16 23:30N 35°27' E 139°39'0 0.0
2017-Jul-16 23:00N 35°27' E 139°39'0 0.0
2017-Jul-16 22:30N 35°27' E 139°39'0 0.0
2017-Jul-16 22:00N 35°27' E 139°39'0 0.0
2017-Jul-16 21:30N 35°27' E 139°39'0 0.0
2017-Jul-16 21:00N 35°27' E 139°39'0 0.0
2017-Jul-16 20:31N 35°27' E 139°39'0 0.0
2017-Jul-16 20:00N 35°27' E 139°39'0 0.0
2017-Jul-16 19:31N 35°27' E 139°39'0 0.0
2017-Jul-16 19:01N 35°27' E 139°39'0 0.0
2017-Jul-16 18:31N 35°27' E 139°39'0 0.0
2017-Jul-16 18:01N 35°27' E 139°39'0 0.0
2017-Jul-16 17:31N 35°27' E 139°39'0 0.0
2017-Jul-16 17:00N 35°27' E 139°39'0 0.0
2017-Jul-16 16:31N 35°27' E 139°39'0 0.0
2017-Jul-16 16:01N 35°27' E 139°39'0 0.0
2017-Jul-16 15:30N 35°27' E 139°39'0 0.0
2017-Jul-16 15:00N 35°27' E 139°39'0 0.0
2017-Jul-16 14:31N 35°27' E 139°39'0 0.0
2017-Jul-16 14:00N 35°27' E 139°39'0 0.0
2017-Jul-16 00:09N 35°27' E 139°39'0 0.0
2017-Jul-16 00:00N 35°27' E 139°39'3 5.9
2017-Jul-15 23:30N 35°26' E 139°42'4 7.4
2017-Jul-15 23:00N 35°23' E 139°41'0 0.0
2017-Jul-15 22:30N 35°23' E 139°41'0 0.0
2017-Jul-15 22:00N 35°23' E 139°41'3 5.3
2017-Jul-15 21:30N 35°25' E 139°42'3 5.9
2017-Jul-15 21:00N 35°28' E 139°42'0 0.5
2017-Jul-15 20:30N 35°28' E 139°42'0 0.9
2017-Jul-15 20:00N 35°28' E 139°42'0 0.0
2017-Jul-15 19:30N 35°28' E 139°42'0 0.0
2017-Jul-15 19:00N 35°28' E 139°42'0 0.0
2017-Jul-15 18:31N 35°28' E 139°42'2 3.6
2017-Jul-15 18:01N 35°26' E 139°41'0 0.1
2017-Jul-15 17:30N 35°26' E 139°41'1 1.2
2017-Jul-15 17:00N 35°26' E 139°42'0 0.0
2017-Jul-15 16:31N 35°26' E 139°42'0 0.0
2017-Jul-15 16:01N 35°26' E 139°42'0 0.0
2017-Jul-15 15:31N 35°26' E 139°42'0 0.0
2017-Jul-15 15:00N 35°26' E 139°42'0 0.0
2017-Jul-15 14:00N 35°26' E 139°42'1 1.4
2017-Jul-15 13:30N 35°27' E 139°41'1 1.9
2017-Jul-15 13:00N 35°27' E 139°42'0 0.0
2017-Jul-15 12:31N 35°27' E 139°42'0 0.0
2017-Jul-15 12:01N 35°27' E 139°42'0 0.0
2017-Jul-15 11:31N 35°27' E 139°42'0 0.0
2017-Jul-15 11:01N 35°27' E 139°42'0 0.0
2017-Jul-15 10:30N 35°27' E 139°42'1 1.6
2017-Jul-15 10:01N 35°27' E 139°41'0 0.9
2017-Jul-15 09:31N 35°26' E 139°41'1 1.4
2017-Jul-15 09:00N 35°26' E 139°42'0 0.0
2017-Jul-15 08:30N 35°26' E 139°42'1 1.3
2017-Jul-15 08:01N 35°27' E 139°41'1 2.3
2017-Jul-15 07:30N 35°27' E 139°42'3 6.2
2017-Jul-15 07:00N 35°27' E 139°39'0 0.0
2017-Jul-15 06:30N 35°27' E 139°39'0 0.0
2017-Jul-15 06:00N 35°27' E 139°39'0 0.0
2017-Jul-15 05:30N 35°27' E 139°39'0 0.0
2017-Jul-15 05:00N 35°27' E 139°39'0 0.0
2017-Jul-15 04:30N 35°27' E 139°39'0 0.0
2017-Jul-15 04:00N 35°27' E 139°39'0 0.0
2017-Jul-15 03:30N 35°27' E 139°39'0 0.0
2017-Jul-15 03:00N 35°27' E 139°39'0 0.0
2017-Jul-15 02:30N 35°27' E 139°39'0 0.0
2017-Jul-15 02:00N 35°27' E 139°39'0 0.0
2017-Jul-15 01:30N 35°27' E 139°39'0 0.0
2017-Jul-15 01:00N 35°27' E 139°39'0 0.0
2017-Jul-15 00:30N 35°27' E 139°39'0 0.0
2017-Jul-15 00:00N 35°27' E 139°39'0 0.0
2017-Jul-14 23:30N 35°27' E 139°39'0 0.0
2017-Jul-14 23:00N 35°27' E 139°39'0 0.0
2017-Jul-14 22:30N 35°27' E 139°39'0 0.0
2017-Jul-14 22:00N 35°27' E 139°39'0 0.0
2017-Jul-14 07:18N 35°27' E 139°39'0 0.0
2017-Jul-14 07:00N 35°27' E 139°39'0 0.0
2017-Jul-14 06:30N 35°27' E 139°39'0 0.0
2017-Jul-14 06:00N 35°27' E 139°39'0 0.0
2017-Jul-14 05:30N 35°27' E 139°39'0 0.0
2017-Jul-14 05:00N 35°27' E 139°39'0 0.0
2017-Jul-14 04:30N 35°27' E 139°39'0 0.0
2017-Jul-14 04:00N 35°27' E 139°39'0 0.0
2017-Jul-14 03:30N 35°27' E 139°39'1 1.9
2017-Jul-14 03:00N 35°28' E 139°40'510.9
2017-Jul-14 02:30N 35°30' E 139°45'1 2.0
2017-Jul-14 02:00N 35°31' E 139°46'0 0.1
2017-Jul-14 01:30N 35°31' E 139°46'1 2.4
2017-Jul-14 01:00N 35°30' E 139°47'1 1.5
2017-Jul-14 00:30N 35°30' E 139°47'1 1.3
2017-Jul-14 00:00N 35°29' E 139°47'0 0.0
2017-Jul-13 23:30N 35°29' E 139°47'3 5.1
2017-Jul-13 23:00N 35°30' E 139°44'0 0.3
2017-Jul-13 22:30N 35°30' E 139°44'2 4.3
2017-Jul-13 22:00N 35°28' E 139°42'3 5.2
2017-Jul-13 21:30N 35°26' E 139°44'2 3.0
2017-Jul-13 21:00N 35°27' E 139°42'3 5.5
2017-Jul-13 20:30N 35°27' E 139°39'0 0.0
2017-Jul-13 20:00N 35°27' E 139°39'0 0.0
2017-Jul-13 19:30N 35°27' E 139°39'0 0.0
2017-Jul-13 19:00N 35°27' E 139°39'0 0.0
2017-Jul-13 18:30N 35°27' E 139°39'0 0.0
2017-Jul-13 18:00N 35°27' E 139°39'0 0.0
2017-Jul-13 17:30N 35°27' E 139°39'0 0.0
2017-Jul-13 17:00N 35°27' E 139°39'0 0.0
2017-Jul-13 16:30N 35°27' E 139°39'0 0.0
2017-Jul-13 16:00N 35°27' E 139°39'0 0.0
2017-Jul-13 15:30N 35°27' E 139°39'0 0.0
2017-Jul-13 15:00N 35°27' E 139°39'0 0.0
2017-Jul-13 14:30N 35°27' E 139°39'0 0.0
2017-Jul-13 14:00N 35°27' E 139°39'0 0.0
2017-Jul-13 13:30N 35°27' E 139°39'0 0.0
2017-Jul-13 13:00N 35°27' E 139°39'0 0.0
2017-Jul-13 12:30N 35°27' E 139°39'0 0.0
2017-Jul-13 12:00N 35°27' E 139°39'0 0.0
2017-Jul-13 11:30N 35°27' E 139°39'0 0.0
2017-Jul-13 11:00N 35°27' E 139°39'0 0.0
2017-Jul-13 10:30N 35°27' E 139°39'3 5.5
2017-Jul-13 10:01N 35°27' E 139°42'510.5
2017-Jul-13 09:30N 35°30' E 139°47'3 6.7
2017-Jul-13 09:00N 35°29' E 139°43'0 0.0
2017-Jul-13 08:31N 35°29' E 139°43'3 5.2
2017-Jul-13 08:00N 35°30' E 139°46'0 0.1
2017-Jul-13 07:31N 35°30' E 139°46'  
Track history (hours):
 
Tides and Currents Weather Stations Pressure Air Temp Water Temp Dewpoint Dewpoint Depression Visibility Wind Speed Wind Dir Waves Ship Positions

Sakura

Last reported at 2017-Jul-23 07:13 UTC. Time now 2017-Jul-23 12:34 UTC.
Position N 35°27' E 139°39'.

Length 32 m; draft 3.6 m.

Type: Tug. MMSI: 431101178.

Date/timePositionNaut miles runAvg speedWind from/ knotsBaromVisibWave heightAir tempDewpointWater temp
2017-Jul-23 07:13N 35°27' E 139°39'0 0.0
2017-Jul-23 07:00N 35°27' E 139°39'0 0.0
2017-Jul-23 06:30N 35°27' E 139°39'0 0.0
2017-Jul-23 06:00N 35°27' E 139°39'0 0.0
2017-Jul-23 05:30N 35°27' E 139°39'0 0.0
2017-Jul-23 05:00N 35°27' E 139°39'0 0.0
2017-Jul-23 04:31N 35°27' E 139°39'0 0.0
2017-Jul-23 00:48N 35°27' E 139°39'0 0.0
2017-Jul-23 00:30N 35°27' E 139°39'0 0.0
2017-Jul-23 00:00N 35°27' E 139°39'0 0.0
2017-Jul-22 23:30N 35°27' E 139°39'1 1.5
2017-Jul-22 23:01N 35°27' E 139°39'510.1
2017-Jul-22 22:31N 35°29' E 139°45'0 0.2
2017-Jul-22 22:00N 35°29' E 139°45'1 1.7
2017-Jul-22 21:30N 35°29' E 139°45'1 1.1
2017-Jul-22 21:00N 35°28' E 139°45'0 0.0
2017-Jul-22 20:30N 35°28' E 139°45'0 0.0
2017-Jul-22 20:00N 35°28' E 139°45'0 0.0
2017-Jul-22 19:30N 35°28' E 139°45'0 0.0
2017-Jul-22 19:00N 35°28' E 139°45'0 0.0
2017-Jul-22 18:30N 35°28' E 139°45'0 0.0
2017-Jul-22 18:00N 35°28' E 139°45'0 0.0
2017-Jul-22 17:30N 35°28' E 139°45'0 0.0
2017-Jul-22 17:00N 35°28' E 139°45'0 0.0
2017-Jul-22 16:30N 35°28' E 139°45'0 0.0
2017-Jul-22 16:00N 35°28' E 139°45'0 0.0
2017-Jul-22 15:30N 35°28' E 139°45'0 0.0
2017-Jul-22 15:00N 35°28' E 139°45'0 0.0
2017-Jul-22 14:00N 35°28' E 139°45'1 1.9
2017-Jul-22 13:30N 35°29' E 139°45'1 1.5
2017-Jul-22 13:00N 35°29' E 139°45'4 8.2
2017-Jul-22 12:30N 35°27' E 139°40'1 2.3
2017-Jul-22 12:00N 35°27' E 139°39'0 0.0
2017-Jul-22 11:30N 35°27' E 139°39'0 0.0
2017-Jul-22 11:00N 35°27' E 139°39'0 0.0
2017-Jul-22 10:30N 35°27' E 139°39'0 0.0
2017-Jul-22 10:00N 35°27' E 139°39'0 0.0
2017-Jul-22 09:30N 35°27' E 139°39'0 0.0
2017-Jul-22 09:00N 35°27' E 139°39'2 3.3
2017-Jul-22 08:30N 35°26' E 139°40'1 2.0
2017-Jul-22 08:00N 35°27' E 139°39'0 0.0
2017-Jul-22 07:30N 35°27' E 139°39'0 0.0
2017-Jul-22 07:00N 35°27' E 139°39'0 0.0
2017-Jul-22 06:30N 35°27' E 139°39'0 0.0
2017-Jul-22 06:00N 35°27' E 139°39'0 0.0
2017-Jul-22 05:30N 35°27' E 139°39'0 0.0
2017-Jul-22 05:00N 35°27' E 139°39'3 5.8
2017-Jul-22 04:30N 35°29' E 139°42'4 7.7
2017-Jul-22 04:00N 35°31' E 139°46'1 1.9
2017-Jul-22 03:30N 35°30' E 139°45'3 6.6
2017-Jul-22 03:00N 35°29' E 139°42'2 3.5
2017-Jul-22 02:30N 35°28' E 139°44'3 6.9
2017-Jul-22 02:00N 35°27' E 139°40'0 0.3
2017-Jul-22 01:30N 35°27' E 139°39'0 0.0
2017-Jul-22 01:00N 35°27' E 139°39'0 0.0
2017-Jul-22 00:30N 35°27' E 139°39'0 0.2
2017-Jul-22 00:01N 35°27' E 139°39'2 3.4
2017-Jul-21 23:30N 35°28' E 139°41'1 2.6
2017-Jul-21 23:01N 35°27' E 139°43'1 2.6
2017-Jul-21 22:30N 35°26' E 139°44'4 7.9
2017-Jul-21 22:01N 35°27' E 139°40'1 1.6
2017-Jul-21 21:30N 35°27' E 139°39'0 0.0
2017-Jul-21 21:00N 35°27' E 139°39'0 0.0
2017-Jul-21 09:43N 35°27' E 139°39'0 0.5
2017-Jul-21 09:30N 35°27' E 139°39'2 3.9
2017-Jul-21 09:00N 35°27' E 139°41'0 0.2
2017-Jul-21 08:30N 35°27' E 139°41'2 3.8
2017-Jul-21 08:00N 35°27' E 139°39'0 0.0
2017-Jul-21 07:30N 35°27' E 139°39'1 1.7
2017-Jul-21 07:00N 35°27' E 139°40'0 0.0
2017-Jul-21 06:30N 35°27' E 139°40'1 2.5
2017-Jul-21 06:00N 35°26' E 139°41'0 0.1
2017-Jul-21 05:30N 35°26' E 139°41'2 4.1
2017-Jul-21 05:01N 35°27' E 139°39'0 0.0
2017-Jul-21 04:31N 35°27' E 139°39'0 0.0
2017-Jul-21 04:01N 35°27' E 139°39'0 0.0
2017-Jul-21 03:31N 35°27' E 139°39'2 4.0
2017-Jul-21 03:00N 35°28' E 139°41'0 0.9
2017-Jul-21 02:30N 35°28' E 139°41'1 1.2
2017-Jul-21 02:00N 35°28' E 139°42'1 1.4
2017-Jul-21 01:31N 35°27' E 139°42'0 0.0
2017-Jul-21 01:01N 35°27' E 139°42'0 0.0
2017-Jul-21 00:31N 35°27' E 139°42'0 0.0
2017-Jul-21 00:00N 35°27' E 139°42'0 0.0
2017-Jul-20 23:30N 35°27' E 139°42'0 0.0
2017-Jul-20 23:00N 35°27' E 139°42'0 0.1
2017-Jul-20 22:30N 35°27' E 139°42'2 3.5
2017-Jul-20 22:00N 35°26' E 139°42'1 1.1
2017-Jul-20 21:30N 35°26' E 139°41'3 5.5
2017-Jul-20 21:01N 35°27' E 139°39'0 0.4
2017-Jul-20 20:30N 35°27' E 139°39'0 0.0
2017-Jul-20 08:51N 35°27' E 139°39'0 0.0
2017-Jul-20 08:31N 35°27' E 139°39'0 0.0
2017-Jul-20 08:01N 35°27' E 139°39'0 0.0
2017-Jul-20 07:31N 35°27' E 139°39'0 0.0
2017-Jul-20 07:00N 35°27' E 139°39'0 0.0
2017-Jul-20 06:31N 35°27' E 139°39'0 0.0
2017-Jul-20 06:01N 35°27' E 139°39'0 0.0
2017-Jul-20 05:31N 35°27' E 139°39'0 0.0
2017-Jul-20 05:01N 35°27' E 139°39'0 0.0
2017-Jul-20 04:31N 35°27' E 139°39'0 0.0
2017-Jul-20 04:01N 35°27' E 139°39'0 0.0
2017-Jul-20 03:31N 35°27' E 139°39'0 0.0
2017-Jul-20 03:01N 35°27' E 139°39'0 0.0
2017-Jul-20 02:31N 35°27' E 139°39'0 0.0
2017-Jul-20 02:01N 35°27' E 139°39'0 0.0
2017-Jul-20 01:31N 35°27' E 139°39'0 0.0
2017-Jul-20 01:00N 35°27' E 139°39'0 0.0
2017-Jul-20 00:31N 35°27' E 139°39'1 1.8
2017-Jul-20 00:01N 35°28' E 139°40'1 2.2
2017-Jul-19 23:31N 35°29' E 139°39'2 3.4
2017-Jul-19 23:01N 35°28' E 139°41'0 0.6
2017-Jul-19 22:31N 35°28' E 139°41'1 2.7
2017-Jul-19 22:01N 35°28' E 139°43'2 3.0
2017-Jul-19 21:31N 35°27' E 139°41'2 3.8
2017-Jul-19 21:01N 35°27' E 139°39'0 0.0
2017-Jul-19 20:30N 35°27' E 139°39'0 0.0
2017-Jul-19 20:01N 35°27' E 139°39'0 0.0
2017-Jul-19 19:30N 35°27' E 139°39'0 0.0
2017-Jul-19 19:01N 35°27' E 139°39'0 0.0
2017-Jul-19 18:31N 35°27' E 139°39'0 0.0
2017-Jul-19 18:01N 35°27' E 139°39'0 0.0
2017-Jul-19 07:19N 35°27' E 139°39'0 0.0
2017-Jul-19 07:00N 35°27' E 139°39'0 0.0
2017-Jul-19 06:30N 35°27' E 139°39'0 0.0
2017-Jul-19 06:01N 35°27' E 139°39'0 0.0
2017-Jul-19 05:31N 35°27' E 139°39'4 8.0
2017-Jul-19 05:00N 35°24' E 139°42'2 3.1
2017-Jul-19 04:31N 35°24' E 139°40'0 0.1
2017-Jul-19 04:00N 35°24' E 139°40'0 0.4
2017-Jul-19 03:31N 35°24' E 139°40'2 3.1
2017-Jul-19 03:00N 35°24' E 139°42'4 7.0
2017-Jul-19 02:30N 35°28' E 139°41'0 0.0
2017-Jul-19 02:00N 35°28' E 139°41'0 0.0
2017-Jul-19 01:30N 35°28' E 139°41'0 0.0
2017-Jul-19 01:00N 35°28' E 139°41'0 0.0
2017-Jul-19 00:30N 35°28' E 139°41'0 0.0
2017-Jul-19 00:01N 35°28' E 139°41'0 0.0
2017-Jul-18 23:30N 35°28' E 139°41'0 0.0
2017-Jul-18 23:01N 35°28' E 139°41'1 2.2
2017-Jul-18 22:30N 35°28' E 139°42'1 2.7
2017-Jul-18 22:01N 35°27' E 139°43'4 7.6
2017-Jul-18 21:30N 35°27' E 139°39'0 0.0
2017-Jul-18 21:00N 35°27' E 139°39'0 0.0
2017-Jul-18 20:30N 35°27' E 139°39'0 0.0
2017-Jul-18 07:16N 35°27' E 139°39'0 0.0
2017-Jul-18 07:00N 35°27' E 139°39'0 0.0
2017-Jul-18 06:30N 35°27' E 139°39'1 1.4
2017-Jul-18 06:01N 35°27' E 139°39'0 0.1
2017-Jul-18 05:30N 35°27' E 139°39'3 6.5
2017-Jul-18 05:00N 35°28' E 139°43'1 2.1
2017-Jul-18 04:30N 35°28' E 139°44'0 0.1
2017-Jul-18 04:00N 35°28' E 139°44'0 0.3
2017-Jul-18 03:30N 35°28' E 139°44'1 2.4
2017-Jul-18 03:00N 35°27' E 139°44'1 1.2
2017-Jul-18 02:30N 35°26' E 139°45'2 3.6
2017-Jul-18 02:00N 35°28' E 139°44'0 0.0
2017-Jul-18 01:30N 35°28' E 139°44'1 1.2
2017-Jul-18 01:00N 35°28' E 139°44'2 4.6
2017-Jul-18 00:30N 35°30' E 139°45'1 1.7
2017-Jul-18 00:00N 35°30' E 139°44'5 9.7
2017-Jul-17 23:30N 35°27' E 139°40'1 0.0
2017-Jul-17 07:08N 35°27' E 139°39'0 0.0
2017-Jul-17 07:00N 35°27' E 139°39'0 0.0
2017-Jul-17 06:30N 35°27' E 139°39'0 0.0
2017-Jul-17 06:00N 35°27' E 139°39'0 0.0
2017-Jul-17 05:30N 35°27' E 139°39'0 0.0
2017-Jul-17 05:00N 35°27' E 139°39'0 0.0
2017-Jul-17 04:30N 35°27' E 139°39'0 0.0
2017-Jul-17 04:00N 35°27' E 139°39'0 0.7
2017-Jul-17 03:31N 35°28' E 139°39'611.7
2017-Jul-17 03:00N 35°31' E 139°45'0 0.5
2017-Jul-17 02:30N 35°30' E 139°45'3 6.5
2017-Jul-17 02:00N 35°28' E 139°42'3 6.7
2017-Jul-17 01:30N 35°29' E 139°46'0 0.5
2017-Jul-17 01:00N 35°29' E 139°46'4 8.0
2017-Jul-17 00:30N 35°27' E 139°41'2 4.4
2017-Jul-17 00:00N 35°27' E 139°39'0 0.0
2017-Jul-16 23:30N 35°27' E 139°39'0 0.0
2017-Jul-16 23:00N 35°27' E 139°39'0 0.0
2017-Jul-16 22:30N 35°27' E 139°39'0 0.0
2017-Jul-16 22:00N 35°27' E 139°39'0 0.0
2017-Jul-16 21:30N 35°27' E 139°39'0 0.0
2017-Jul-16 21:00N 35°27' E 139°39'0 0.0
2017-Jul-16 20:31N 35°27' E 139°39'0 0.0
2017-Jul-16 20:00N 35°27' E 139°39'0 0.0
2017-Jul-16 19:31N 35°27' E 139°39'0 0.0
2017-Jul-16 19:01N 35°27' E 139°39'0 0.0
2017-Jul-16 18:31N 35°27' E 139°39'0 0.0
2017-Jul-16 18:01N 35°27' E 139°39'0 0.0
2017-Jul-16 17:31N 35°27' E 139°39'0 0.0
2017-Jul-16 17:00N 35°27' E 139°39'0 0.0
2017-Jul-16 16:31N 35°27' E 139°39'0 0.0
2017-Jul-16 16:01N 35°27' E 139°39'0 0.0
2017-Jul-16 15:30N 35°27' E 139°39'0 0.0
2017-Jul-16 15:00N 35°27' E 139°39'0 0.0
2017-Jul-16 14:31N 35°27' E 139°39'0 0.0
2017-Jul-16 14:00N 35°27' E 139°39'0 0.0
2017-Jul-16 00:09N 35°27' E 139°39'0 0.0
2017-Jul-16 00:00N 35°27' E 139°39'3 5.9
2017-Jul-15 23:30N 35°26' E 139°42'4 7.4
2017-Jul-15 23:00N 35°23' E 139°41'0 0.0
2017-Jul-15 22:30N 35°23' E 139°41'0 0.0
2017-Jul-15 22:00N 35°23' E 139°41'3 5.3
2017-Jul-15 21:30N 35°25' E 139°42'3 5.9
2017-Jul-15 21:00N 35°28' E 139°42'0 0.5
2017-Jul-15 20:30N 35°28' E 139°42'0 0.9
2017-Jul-15 20:00N 35°28' E 139°42'0 0.0
2017-Jul-15 19:30N 35°28' E 139°42'0 0.0
2017-Jul-15 19:00N 35°28' E 139°42'0 0.0
2017-Jul-15 18:31N 35°28' E 139°42'2 3.6
2017-Jul-15 18:01N 35°26' E 139°41'0 0.1
2017-Jul-15 17:30N 35°26' E 139°41'1 1.2
2017-Jul-15 17:00N 35°26' E 139°42'0 0.0
2017-Jul-15 16:31N 35°26' E 139°42'0 0.0
2017-Jul-15 16:01N 35°26' E 139°42'0 0.0
2017-Jul-15 15:31N 35°26' E 139°42'0 0.0
2017-Jul-15 15:00N 35°26' E 139°42'0 0.0
2017-Jul-15 14:00N 35°26' E 139°42'1 1.4
2017-Jul-15 13:30N 35°27' E 139°41'1 1.9
2017-Jul-15 13:00N 35°27' E 139°42'0 0.0
2017-Jul-15 12:31N 35°27' E 139°42'0 0.0
2017-Jul-15 12:01N 35°27' E 139°42'0 0.0
2017-Jul-15 11:31N 35°27' E 139°42'0 0.0
2017-Jul-15 11:01N 35°27' E 139°42'0 0.0
2017-Jul-15 10:30N 35°27' E 139°42'1 1.6
2017-Jul-15 10:01N 35°27' E 139°41'0 0.9
2017-Jul-15 09:31N 35°26' E 139°41'1 1.4
2017-Jul-15 09:00N 35°26' E 139°42'0 0.0
2017-Jul-15 08:30N 35°26' E 139°42'1 1.3
2017-Jul-15 08:01N 35°27' E 139°41'1 2.3
2017-Jul-15 07:30N 35°27' E 139°42'3 6.2
2017-Jul-15 07:00N 35°27' E 139°39'0 0.0
2017-Jul-15 06:30N 35°27' E 139°39'0 0.0
2017-Jul-15 06:00N 35°27' E 139°39'0 0.0
2017-Jul-15 05:30N 35°27' E 139°39'0 0.0
2017-Jul-15 05:00N 35°27' E 139°39'0 0.0
2017-Jul-15 04:30N 35°27' E 139°39'0 0.0
2017-Jul-15 04:00N 35°27' E 139°39'0 0.0
2017-Jul-15 03:30N 35°27' E 139°39'0 0.0
2017-Jul-15 03:00N 35°27' E 139°39'0 0.0
2017-Jul-15 02:30N 35°27' E 139°39'0 0.0
2017-Jul-15 02:00N 35°27' E 139°39'0 0.0
2017-Jul-15 01:30N 35°27' E 139°39'0 0.0
2017-Jul-15 01:00N 35°27' E 139°39'0 0.0
2017-Jul-15 00:30N 35°27' E 139°39'0 0.0
2017-Jul-15 00:00N 35°27' E 139°39'0 0.0
2017-Jul-14 23:30N 35°27' E 139°39'0 0.0
2017-Jul-14 23:00N 35°27' E 139°39'0 0.0
2017-Jul-14 22:30N 35°27' E 139°39'0 0.0
2017-Jul-14 22:00N 35°27' E 139°39'0 0.0
2017-Jul-14 07:18N 35°27' E 139°39'0 0.0
2017-Jul-14 07:00N 35°27' E 139°39'0 0.0
2017-Jul-14 06:30N 35°27' E 139°39'0 0.0
2017-Jul-14 06:00N 35°27' E 139°39'0 0.0
2017-Jul-14 05:30N 35°27' E 139°39'0 0.0
2017-Jul-14 05:00N 35°27' E 139°39'0 0.0
2017-Jul-14 04:30N 35°27' E 139°39'0 0.0
2017-Jul-14 04:00N 35°27' E 139°39'0 0.0
2017-Jul-14 03:30N 35°27' E 139°39'1 1.9
2017-Jul-14 03:00N 35°28' E 139°40'510.9
2017-Jul-14 02:30N 35°30' E 139°45'1 2.0
2017-Jul-14 02:00N 35°31' E 139°46'0 0.1
2017-Jul-14 01:30N 35°31' E 139°46'1 2.4
2017-Jul-14 01:00N 35°30' E 139°47'1 1.5
2017-Jul-14 00:30N 35°30' E 139°47'1 1.3
2017-Jul-14 00:00N 35°29' E 139°47'0 0.0
2017-Jul-13 23:30N 35°29' E 139°47'3 5.1
2017-Jul-13 23:00N 35°30' E 139°44'0 0.3
2017-Jul-13 22:30N 35°30' E 139°44'2 4.3
2017-Jul-13 22:00N 35°28' E 139°42'3 5.2
2017-Jul-13 21:30N 35°26' E 139°44'2 3.0
2017-Jul-13 21:00N 35°27' E 139°42'3 5.5
2017-Jul-13 20:30N 35°27' E 139°39'0 0.0
2017-Jul-13 20:00N 35°27' E 139°39'0 0.0
2017-Jul-13 19:30N 35°27' E 139°39'0 0.0
2017-Jul-13 19:00N 35°27' E 139°39'0 0.0
2017-Jul-13 18:30N 35°27' E 139°39'0 0.0
2017-Jul-13 18:00N 35°27' E 139°39'0 0.0
2017-Jul-13 17:30N 35°27' E 139°39'0 0.0
2017-Jul-13 17:00N 35°27' E 139°39'0 0.0
2017-Jul-13 16:30N 35°27' E 139°39'0 0.0
2017-Jul-13 16:00N 35°27' E 139°39'0 0.0
2017-Jul-13 15:30N 35°27' E 139°39'0 0.0
2017-Jul-13 15:00N 35°27' E 139°39'0 0.0
2017-Jul-13 14:30N 35°27' E 139°39'0 0.0
2017-Jul-13 14:00N 35°27' E 139°39'0 0.0
2017-Jul-13 13:30N 35°27' E 139°39'0 0.0
2017-Jul-13 13:00N 35°27' E 139°39'0 0.0
2017-Jul-13 12:30N 35°27' E 139°39'0 0.0
2017-Jul-13 12:00N 35°27' E 139°39'0 0.0
2017-Jul-13 11:30N 35°27' E 139°39'0 0.0
2017-Jul-13 11:00N 35°27' E 139°39'0 0.0
2017-Jul-13 10:30N 35°27' E 139°39'3 5.5
2017-Jul-13 10:01N 35°27' E 139°42'510.5
2017-Jul-13 09:30N 35°30' E 139°47'3 6.7
2017-Jul-13 09:00N 35°29' E 139°43'0 0.0
2017-Jul-13 08:31N 35°29' E 139°43'3 5.2
2017-Jul-13 08:00N 35°30' E 139°46'0 0.1
2017-Jul-13 07:31N 35°30' E 139°46'  

Dump ship's entire track history